NKS651 KFLL-SKAR
Flight info
| Callsign | NKS651 |
|---|---|
| Flight time | 3h 26m |
| Altitude | 35000 |
| Route | REGAE2 URSUS UP406 AKPEK UQ121 RNG DCT MATRO MATRO1H |
| Aircraft | A320/M-SDE3FGHIRWY/LB1 |
Departure
| Time | 2026-05-03 23:48 |
|---|---|
| Airport | Fort Lauderdale Hollywood International Airport (KFLL) |
Arrival
| Time | 2026-05-04 03:14 |
|---|---|
| Airport | El Eden Airport (SKAR) |
| Time | Latitude | Longitude | Altitude | Speed | Heading |
|---|---|---|---|---|---|
| 2026-05-03 22:42 | 26.06926 | -80.14145 | 16 ft | 0 kts | 297° |
| 2026-05-03 22:55 | 26.06920 | -80.14132 | 16 ft | 2 kts | 299° |
| 2026-05-03 22:55 | 26.06912 | -80.14116 | 15 ft | 2 kts | 299° |
| 2026-05-03 22:56 | 26.06904 | -80.14100 | 16 ft | 2 kts | 277° |
| 2026-05-03 22:56 | 26.06907 | -80.14082 | 16 ft | 2 kts | 182° |
| 2026-05-03 22:56 | 26.06923 | -80.14082 | 16 ft | 2 kts | 174° |
| 2026-05-03 22:56 | 26.06927 | -80.14083 | 16 ft | 0 kts | 185° |
| 2026-05-03 23:08 | 26.06916 | -80.14084 | 16 ft | 6 kts | 182° |
| 2026-05-03 23:08 | 26.06858 | -80.14087 | 16 ft | 10 kts | 192° |
| 2026-05-03 23:08 | 26.06816 | -80.14162 | 16 ft | 15 kts | 271° |
| 2026-05-03 23:09 | 26.06791 | -80.14270 | 15 ft | 15 kts | 233° |
| 2026-05-03 23:09 | 26.06770 | -80.14378 | 15 ft | 15 kts | 271° |
| 2026-05-03 23:09 | 26.06771 | -80.14495 | 15 ft | 17 kts | 270° |
| 2026-05-03 23:09 | 26.06765 | -80.14627 | 15 ft | 17 kts | 271° |
| 2026-05-03 23:10 | 26.06767 | -80.14760 | 15 ft | 17 kts | 270° |
| 2026-05-03 23:10 | 26.06767 | -80.14893 | 15 ft | 17 kts | 270° |
| 2026-05-03 23:10 | 26.06768 | -80.15024 | 16 ft | 17 kts | 270° |
| 2026-05-03 23:10 | 26.06737 | -80.15131 | 20 ft | 14 kts | 193° |
| 2026-05-03 23:11 | 26.06694 | -80.15191 | 21 ft | 10 kts | 271° |
| 2026-05-03 23:11 | 26.06695 | -80.15273 | 17 ft | 13 kts | 270° |
| 2026-05-03 23:11 | 26.06696 | -80.15377 | 16 ft | 11 kts | 270° |
| 2026-05-03 23:11 | 26.06697 | -80.15431 | 16 ft | 4 kts | 270° |
| 2026-05-03 23:12 | 26.06697 | -80.15449 | 16 ft | 0 kts | 270° |
| 2026-05-03 23:14 | 26.06697 | -80.15464 | 16 ft | 4 kts | 271° |
| 2026-05-03 23:14 | 26.06697 | -80.15514 | 16 ft | 9 kts | 270° |
| 2026-05-03 23:14 | 26.06697 | -80.15582 | 16 ft | 8 kts | 270° |
| 2026-05-03 23:14 | 26.06697 | -80.15595 | 16 ft | 0 kts | 270° |
| 2026-05-03 23:17 | 26.06697 | -80.15598 | 16 ft | 1 kts | 270° |
| 2026-05-03 23:17 | 26.06697 | -80.15610 | 16 ft | 0 kts | 270° |
| 2026-05-03 23:35 | 26.06697 | -80.15612 | 16 ft | 1 kts | 270° |
| 2026-05-03 23:35 | 26.06697 | -80.15616 | 16 ft | 1 kts | 270° |
| 2026-05-03 23:36 | 26.06698 | -80.15621 | 16 ft | 1 kts | 270° |
| 2026-05-03 23:36 | 26.06698 | -80.15636 | 16 ft | 3 kts | 270° |
| 2026-05-03 23:36 | 26.06698 | -80.15652 | 18 ft | 0 kts | 270° |
| 2026-05-03 23:46 | 26.06698 | -80.15659 | 16 ft | 2 kts | 270° |
| 2026-05-03 23:46 | 26.06698 | -80.15698 | 16 ft | 8 kts | 270° |
| 2026-05-03 23:46 | 26.06698 | -80.15762 | 16 ft | 9 kts | 270° |
| 2026-05-03 23:46 | 26.06681 | -80.15817 | 16 ft | 0 kts | 200° |
| 2026-05-03 23:47 | 26.06676 | -80.15819 | 16 ft | 4 kts | 199° |
| 2026-05-03 23:47 | 26.06600 | -80.15815 | 18 ft | 12 kts | 160° |
| 2026-05-03 23:47 | 26.06588 | -80.15774 | 19 ft | 5 kts | 89° |
| 2026-05-03 23:47 | 26.06588 | -80.15483 | 23 ft | 78 kts | 90° |
| 2026-05-03 23:48 | 26.06584 | -80.14608 | 37 ft | 142 kts | 90° |
| 2026-05-03 23:48 | 26.06562 | -80.13405 | 482 ft | 157 kts | 89° |
| 2026-05-03 23:48 | 26.06547 | -80.12184 | 1248 ft | 155 kts | 88° |
| 2026-05-03 23:48 | 26.06539 | -80.10998 | 1914 ft | 157 kts | 87° |
| 2026-05-03 23:49 | 26.06561 | -80.09698 | 2094 ft | 176 kts | 86° |
| 2026-05-03 23:49 | 26.06600 | -80.08267 | 2242 ft | 195 kts | 87° |
| 2026-05-03 23:49 | 26.06639 | -80.06690 | 2396 ft | 219 kts | 87° |
| 2026-05-03 23:49 | 26.06673 | -80.04903 | 2649 ft | 243 kts | 88° |
| 2026-05-03 23:50 | 26.06701 | -80.02945 | 3088 ft | 261 kts | 89° |
| 2026-05-03 23:50 | 26.06716 | -80.01569 | 3575 ft | 266 kts | 89° |
| 2026-05-03 23:50 | 26.06728 | -79.98804 | 3959 ft | 271 kts | 90° |
| 2026-05-03 23:50 | 26.06717 | -79.97387 | 4003 ft | 272 kts | 90° |
| 2026-05-03 23:51 | 26.06695 | -79.95279 | 4017 ft | 272 kts | 90° |
| 2026-05-03 23:51 | 26.06671 | -79.93200 | 4007 ft | 273 kts | 90° |
| 2026-05-03 23:51 | 26.06647 | -79.91093 | 4006 ft | 273 kts | 91° |
| 2026-05-03 23:51 | 26.06623 | -79.88985 | 4011 ft | 273 kts | 91° |
| 2026-05-03 23:52 | 26.06598 | -79.86833 | 4371 ft | 277 kts | 91° |
| 2026-05-03 23:52 | 26.06574 | -79.84762 | 5640 ft | 256 kts | 91° |
| 2026-05-03 23:52 | 26.06511 | -79.82836 | 6707 ft | 247 kts | 98° |
| 2026-05-03 23:52 | 26.06237 | -79.80950 | 7383 ft | 248 kts | 102° |
| 2026-05-03 23:53 | 26.05935 | -79.79042 | 8016 ft | 252 kts | 102° |
| 2026-05-03 23:53 | 26.05631 | -79.77135 | 8627 ft | 255 kts | 102° |
| 2026-05-03 23:53 | 26.05322 | -79.75176 | 9223 ft | 259 kts | 102° |
| 2026-05-03 23:53 | 26.05012 | -79.73186 | 9811 ft | 263 kts | 102° |
| 2026-05-03 23:54 | 26.04699 | -79.71172 | 10404 ft | 266 kts | 102° |
| 2026-05-03 23:54 | 26.04381 | -79.69134 | 11007 ft | 269 kts | 103° |
| 2026-05-03 23:54 | 26.04058 | -79.67069 | 11604 ft | 272 kts | 103° |
| 2026-05-03 23:54 | 26.03728 | -79.64985 | 12204 ft | 275 kts | 105° |
| 2026-05-03 23:55 | 26.03254 | -79.62905 | 12729 ft | 282 kts | 108° |
| 2026-05-03 23:55 | 26.02720 | -79.60712 | 12883 ft | 305 kts | 108° |
| 2026-05-03 23:55 | 26.02142 | -79.58350 | 13016 ft | 327 kts | 108° |
| 2026-05-03 23:55 | 26.01525 | -79.55829 | 13146 ft | 348 kts | 109° |
| 2026-05-03 23:56 | 26.00584 | -79.53282 | 13274 ft | 365 kts | 122° |
| 2026-05-03 23:56 | 25.99097 | -79.50954 | 13559 ft | 373 kts | 136° |
| 2026-05-03 23:56 | 25.97156 | -79.49045 | 14093 ft | 373 kts | 149° |
| 2026-05-03 23:56 | 25.94891 | -79.47668 | 14635 ft | 371 kts | 162° |
| 2026-05-03 23:57 | 25.92418 | -79.46893 | 15148 ft | 368 kts | 174° |
| 2026-05-03 23:57 | 25.89891 | -79.46366 | 15651 ft | 371 kts | 174° |
| 2026-05-03 23:57 | 25.87339 | -79.45906 | 16121 ft | 371 kts | 180° |
| 2026-05-03 23:57 | 25.84770 | -79.45951 | 16583 ft | 368 kts | 192° |
| 2026-05-03 23:58 | 25.82286 | -79.46577 | 17058 ft | 365 kts | 204° |
| 2026-05-03 23:58 | 25.79990 | -79.47744 | 17530 ft | 362 kts | 214° |
| 2026-05-03 23:58 | 25.77879 | -79.49264 | 18002 ft | 363 kts | 217° |
| 2026-05-03 23:58 | 25.75761 | -79.50805 | 18477 ft | 365 kts | 217° |
| 2026-05-03 23:59 | 25.73652 | -79.52335 | 18948 ft | 367 kts | 217° |
| 2026-05-03 23:59 | 25.71507 | -79.53886 | 19415 ft | 369 kts | 217° |
| 2026-05-03 23:59 | 25.69348 | -79.55444 | 19880 ft | 371 kts | 217° |
| 2026-05-03 23:59 | 25.67224 | -79.57076 | 20321 ft | 371 kts | 221° |
| 2026-05-04 00:00 | 25.65193 | -79.58856 | 20756 ft | 373 kts | 222° |
| 2026-05-04 00:00 | 25.63150 | -79.60645 | 21184 ft | 375 kts | 222° |
| 2026-05-04 00:00 | 25.61098 | -79.62442 | 21592 ft | 377 kts | 222° |
| 2026-05-04 00:00 | 25.59040 | -79.64246 | 21987 ft | 378 kts | 222° |
| 2026-05-04 00:01 | 25.56974 | -79.66057 | 22365 ft | 380 kts | 222° |
| 2026-05-04 00:01 | 25.54896 | -79.67877 | 22727 ft | 382 kts | 222° |
| 2026-05-04 00:01 | 25.52810 | -79.69703 | 23081 ft | 384 kts | 222° |
| 2026-05-04 00:01 | 25.50709 | -79.71541 | 23420 ft | 386 kts | 222° |
| 2026-05-04 00:02 | 25.48595 | -79.73390 | 23775 ft | 387 kts | 222° |
| 2026-05-04 00:02 | 25.46476 | -79.75244 | 24118 ft | 389 kts | 222° |
| 2026-05-04 00:02 | 25.44348 | -79.77100 | 24453 ft | 390 kts | 221° |
| 2026-05-04 00:02 | 25.42212 | -79.78964 | 24790 ft | 392 kts | 222° |
| 2026-05-04 00:03 | 25.40060 | -79.80824 | 25115 ft | 394 kts | 219° |
| 2026-05-04 00:03 | 25.37656 | -79.82325 | 25439 ft | 401 kts | 207° |
| 2026-05-04 00:03 | 25.34946 | -79.83197 | 25748 ft | 411 kts | 194° |
| 2026-05-04 00:03 | 25.32056 | -79.83350 | 26048 ft | 423 kts | 181° |
| 2026-05-04 00:04 | 25.29127 | -79.82726 | 26324 ft | 435 kts | 170° |
| 2026-05-04 00:04 | 25.26220 | -79.81781 | 26613 ft | 436 kts | 170° |
| 2026-05-04 00:04 | 25.23301 | -79.80835 | 26899 ft | 438 kts | 170° |
| 2026-05-04 00:04 | 25.20367 | -79.79892 | 27183 ft | 440 kts | 170° |
| 2026-05-04 00:05 | 25.17427 | -79.78952 | 27481 ft | 441 kts | 170° |
| 2026-05-04 00:05 | 25.14473 | -79.78009 | 27768 ft | 442 kts | 171° |
| 2026-05-04 00:05 | 25.11514 | -79.77067 | 28067 ft | 443 kts | 171° |
| 2026-05-04 00:05 | 25.08548 | -79.76123 | 28440 ft | 443 kts | 171° |
| 2026-05-04 00:06 | 25.05596 | -79.75180 | 28868 ft | 441 kts | 171° |
| 2026-05-04 00:06 | 25.02656 | -79.74241 | 29288 ft | 439 kts | 171° |
| 2026-05-04 00:06 | 24.99728 | -79.73311 | 29698 ft | 438 kts | 171° |
| 2026-05-04 00:06 | 24.96810 | -79.72386 | 30120 ft | 436 kts | 171° |
| 2026-05-04 00:07 | 24.93937 | -79.71472 | 30506 ft | 435 kts | 171° |
| 2026-05-04 00:07 | 24.91034 | -79.70535 | 30880 ft | 435 kts | 169° |
| 2026-05-04 00:07 | 24.88213 | -79.69246 | 31278 ft | 444 kts | 160° |
| 2026-05-04 00:07 | 24.85553 | -79.67479 | 31642 ft | 448 kts | 154° |
| 2026-05-04 00:08 | 24.82892 | -79.65594 | 32004 ft | 448 kts | 154° |
| 2026-05-04 00:08 | 24.80303 | -79.63767 | 32336 ft | 448 kts | 155° |
| 2026-05-04 00:08 | 24.77648 | -79.61897 | 32690 ft | 447 kts | 155° |
| 2026-05-04 00:08 | 24.75056 | -79.60074 | 33020 ft | 447 kts | 155° |
| 2026-05-04 00:09 | 24.72437 | -79.58235 | 33350 ft | 447 kts | 155° |
| 2026-05-04 00:09 | 24.69819 | -79.56396 | 33664 ft | 447 kts | 154° |
| 2026-05-04 00:09 | 24.67204 | -79.54556 | 33972 ft | 447 kts | 154° |
| 2026-05-04 00:09 | 24.64584 | -79.52713 | 34240 ft | 447 kts | 154° |
| 2026-05-04 00:10 | 24.61959 | -79.50867 | 34535 ft | 447 kts | 154° |
| 2026-05-04 00:10 | 24.59339 | -79.49030 | 34802 ft | 447 kts | 154° |
| 2026-05-04 00:10 | 24.56719 | -79.47195 | 35062 ft | 446 kts | 154° |
| 2026-05-04 00:10 | 24.54100 | -79.45361 | 35322 ft | 446 kts | 155° |
| 2026-05-04 00:11 | 24.51482 | -79.43526 | 35567 ft | 446 kts | 155° |
| 2026-05-04 00:11 | 24.48867 | -79.41696 | 35799 ft | 446 kts | 155° |
| 2026-05-04 00:11 | 24.46248 | -79.39863 | 35981 ft | 446 kts | 155° |
| 2026-05-04 00:11 | 24.43616 | -79.38018 | 36027 ft | 450 kts | 154° |
| 2026-05-04 00:12 | 24.38265 | -79.34281 | 36027 ft | 461 kts | 154° |
| 2026-05-04 00:12 | 24.32828 | -79.30486 | 36017 ft | 465 kts | 154° |
| 2026-05-04 00:13 | 24.27383 | -79.26649 | 36017 ft | 466 kts | 154° |
| 2026-05-04 00:13 | 24.21963 | -79.22744 | 36019 ft | 467 kts | 153° |
| 2026-05-04 00:14 | 24.16539 | -79.18829 | 36018 ft | 466 kts | 153° |
| 2026-05-04 00:14 | 24.11112 | -79.14931 | 36019 ft | 466 kts | 153° |
| 2026-05-04 00:15 | 24.05677 | -79.11038 | 36017 ft | 467 kts | 153° |
| 2026-05-04 00:15 | 24.00095 | -79.07526 | 36017 ft | 456 kts | 165° |
| 2026-05-04 00:16 | 23.94067 | -79.05790 | 36004 ft | 445 kts | 176° |
| 2026-05-04 00:16 | 23.87955 | -79.04596 | 35999 ft | 447 kts | 176° |
| 2026-05-04 00:17 | 23.81821 | -79.03376 | 36005 ft | 448 kts | 176° |
| 2026-05-04 00:17 | 23.75719 | -79.02166 | 36004 ft | 448 kts | 176° |
| 2026-05-04 00:18 | 23.69574 | -79.00952 | 36010 ft | 449 kts | 176° |
| 2026-05-04 00:18 | 23.63427 | -78.99740 | 36005 ft | 450 kts | 176° |
| 2026-05-04 00:19 | 23.57272 | -78.98521 | 36008 ft | 450 kts | 176° |
| 2026-05-04 00:19 | 23.51109 | -78.97307 | 36010 ft | 450 kts | 176° |
| 2026-05-04 00:20 | 23.44939 | -78.96091 | 36012 ft | 451 kts | 176° |
| 2026-05-04 00:20 | 23.38721 | -78.94869 | 36015 ft | 451 kts | 176° |
| 2026-05-04 00:21 | 23.32586 | -78.93663 | 36017 ft | 451 kts | 176° |
| 2026-05-04 00:21 | 23.26399 | -78.92455 | 36017 ft | 452 kts | 176° |
| 2026-05-04 00:22 | 23.20204 | -78.91240 | 36021 ft | 452 kts | 176° |
| 2026-05-04 00:22 | 23.14010 | -78.90028 | 36020 ft | 452 kts | 176° |
| 2026-05-04 00:23 | 23.07813 | -78.88811 | 36024 ft | 453 kts | 176° |
| 2026-05-04 00:23 | 23.01603 | -78.87586 | 36028 ft | 453 kts | 176° |
| 2026-05-04 00:24 | 22.95395 | -78.86370 | 36030 ft | 453 kts | 176° |
| 2026-05-04 00:24 | 22.89177 | -78.85156 | 36027 ft | 453 kts | 176° |
| 2026-05-04 00:25 | 22.82964 | -78.83940 | 36028 ft | 454 kts | 175° |
| 2026-05-04 00:25 | 22.76742 | -78.82719 | 36031 ft | 454 kts | 176° |
| 2026-05-04 00:26 | 22.70523 | -78.81509 | 36031 ft | 454 kts | 176° |
| 2026-05-04 00:26 | 22.64297 | -78.80305 | 36037 ft | 454 kts | 176° |
| 2026-05-04 00:27 | 22.58070 | -78.79094 | 36041 ft | 455 kts | 175° |
| 2026-05-04 00:27 | 22.51843 | -78.77878 | 36041 ft | 455 kts | 175° |
| 2026-05-04 00:28 | 22.45616 | -78.76665 | 36042 ft | 455 kts | 175° |
| 2026-05-04 00:28 | 22.39383 | -78.75455 | 36046 ft | 455 kts | 175° |
| 2026-05-04 00:29 | 22.33141 | -78.74245 | 36044 ft | 456 kts | 175° |
| 2026-05-04 00:29 | 22.26897 | -78.73038 | 36051 ft | 456 kts | 176° |
| 2026-05-04 00:30 | 22.20649 | -78.71828 | 36052 ft | 456 kts | 175° |
| 2026-05-04 00:30 | 22.14406 | -78.70621 | 36059 ft | 456 kts | 175° |
| 2026-05-04 00:31 | 22.08162 | -78.69406 | 36050 ft | 456 kts | 175° |
| 2026-05-04 00:31 | 22.02971 | -78.68395 | 36052 ft | 456 kts | 175° |
| 2026-05-04 00:32 | 21.96717 | -78.67192 | 36054 ft | 456 kts | 175° |
| 2026-05-04 00:32 | 21.89439 | -78.65796 | 36052 ft | 457 kts | 175° |
| 2026-05-04 00:33 | 21.81053 | -78.64182 | 36057 ft | 458 kts | 175° |
| 2026-05-04 00:34 | 21.74776 | -78.62974 | 36056 ft | 458 kts | 175° |
| 2026-05-04 00:34 | 21.68496 | -78.61771 | 36059 ft | 459 kts | 175° |
| 2026-05-04 00:35 | 21.62256 | -78.60570 | 36057 ft | 458 kts | 175° |
| 2026-05-04 00:35 | 21.55972 | -78.59370 | 36060 ft | 459 kts | 175° |
| 2026-05-04 00:36 | 21.49697 | -78.58157 | 36037 ft | 457 kts | 175° |
| 2026-05-04 00:36 | 21.43450 | -78.56953 | 35994 ft | 456 kts | 175° |
| 2026-05-04 00:37 | 21.37202 | -78.55755 | 35937 ft | 456 kts | 175° |
| 2026-05-04 00:37 | 21.30949 | -78.54573 | 35884 ft | 456 kts | 175° |
| 2026-05-04 00:38 | 21.24699 | -78.53384 | 35835 ft | 457 kts | 175° |
| 2026-05-04 00:38 | 21.18437 | -78.52193 | 35790 ft | 456 kts | 174° |
| 2026-05-04 00:39 | 21.12178 | -78.51001 | 35740 ft | 457 kts | 174° |
| 2026-05-04 00:39 | 21.05918 | -78.49801 | 35690 ft | 457 kts | 174° |
| 2026-05-04 00:40 | 20.99692 | -78.48616 | 35641 ft | 458 kts | 174° |
| 2026-05-04 00:40 | 20.93421 | -78.47428 | 35590 ft | 458 kts | 174° |
| 2026-05-04 00:41 | 20.87142 | -78.46235 | 35540 ft | 458 kts | 174° |
| 2026-05-04 00:41 | 20.80863 | -78.45043 | 35485 ft | 458 kts | 174° |
| 2026-05-04 00:42 | 20.74585 | -78.43853 | 35437 ft | 458 kts | 174° |
| 2026-05-04 00:42 | 20.68315 | -78.42664 | 35387 ft | 458 kts | 173° |
| 2026-05-04 00:43 | 20.62030 | -78.41478 | 35334 ft | 458 kts | 173° |
| 2026-05-04 00:43 | 20.55747 | -78.40288 | 35288 ft | 458 kts | 173° |
| 2026-05-04 00:44 | 20.49465 | -78.39100 | 35239 ft | 459 kts | 173° |
| 2026-05-04 00:44 | 20.46318 | -78.38506 | 35097 ft | 459 kts | 173° |
| 2026-05-04 00:44 | 20.43179 | -78.37913 | 35012 ft | 458 kts | 173° |
| 2026-05-04 00:45 | 20.36937 | -78.36736 | 35034 ft | 459 kts | 173° |
| 2026-05-04 00:45 | 20.30648 | -78.35554 | 35035 ft | 459 kts | 173° |
| 2026-05-04 00:46 | 20.24365 | -78.34364 | 35025 ft | 458 kts | 173° |
| 2026-05-04 00:46 | 20.18077 | -78.33176 | 35027 ft | 459 kts | 173° |
| 2026-05-04 00:47 | 20.11789 | -78.31988 | 35030 ft | 459 kts | 173° |
| 2026-05-04 00:47 | 20.05494 | -78.30810 | 35028 ft | 459 kts | 173° |
| 2026-05-04 00:48 | 19.99208 | -78.29633 | 35031 ft | 459 kts | 172° |
| 2026-05-04 00:48 | 19.92928 | -78.28361 | 35029 ft | 459 kts | 171° |
| 2026-05-04 00:49 | 19.86723 | -78.26895 | 35026 ft | 460 kts | 169° |
| 2026-05-04 00:49 | 19.80506 | -78.25397 | 35023 ft | 460 kts | 170° |
| 2026-05-04 00:50 | 19.74272 | -78.23938 | 35023 ft | 460 kts | 170° |
| 2026-05-04 00:50 | 19.68931 | -78.22720 | 35024 ft | 460 kts | 170° |
| 2026-05-04 00:51 | 19.63135 | -78.21399 | 35018 ft | 460 kts | 170° |
| 2026-05-04 00:51 | 19.56876 | -78.19967 | 35018 ft | 460 kts | 170° |
| 2026-05-04 00:52 | 19.50617 | -78.18532 | 35023 ft | 460 kts | 170° |
| 2026-05-04 00:52 | 19.44345 | -78.17095 | 35015 ft | 461 kts | 170° |
| 2026-05-04 00:53 | 19.38071 | -78.15666 | 35014 ft | 461 kts | 170° |
| 2026-05-04 00:53 | 19.31796 | -78.14232 | 35013 ft | 461 kts | 170° |
| 2026-05-04 00:54 | 19.25525 | -78.12788 | 35012 ft | 461 kts | 171° |
| 2026-05-04 00:54 | 19.19246 | -78.11351 | 35017 ft | 462 kts | 170° |
| 2026-05-04 00:55 | 19.12961 | -78.09921 | 35007 ft | 462 kts | 170° |
| 2026-05-04 00:55 | 19.06796 | -78.08513 | 35008 ft | 462 kts | 170° |
| 2026-05-04 00:56 | 19.00508 | -78.07078 | 35003 ft | 462 kts | 170° |
| 2026-05-04 00:56 | 18.94212 | -78.05641 | 35004 ft | 462 kts | 171° |
| 2026-05-04 00:57 | 18.87922 | -78.04213 | 34991 ft | 462 kts | 171° |
| 2026-05-04 00:57 | 18.81633 | -78.02784 | 34996 ft | 462 kts | 170° |
| 2026-05-04 00:58 | 18.75338 | -78.01354 | 34992 ft | 462 kts | 171° |
| 2026-05-04 00:58 | 18.69050 | -77.99928 | 34988 ft | 462 kts | 171° |
| 2026-05-04 00:59 | 18.62756 | -77.98504 | 34985 ft | 463 kts | 171° |
| 2026-05-04 00:59 | 18.56461 | -77.97075 | 34983 ft | 463 kts | 171° |
| 2026-05-04 01:00 | 18.50202 | -77.95652 | 34979 ft | 463 kts | 171° |
| 2026-05-04 01:00 | 18.43900 | -77.94226 | 34977 ft | 463 kts | 171° |
| 2026-05-04 01:01 | 18.37601 | -77.92809 | 34977 ft | 463 kts | 171° |
| 2026-05-04 01:01 | 18.31293 | -77.91387 | 34979 ft | 463 kts | 171° |
| 2026-05-04 01:02 | 18.24989 | -77.89960 | 34983 ft | 463 kts | 171° |
| 2026-05-04 01:02 | 18.18684 | -77.88532 | 34987 ft | 463 kts | 171° |
| 2026-05-04 01:03 | 18.12373 | -77.87108 | 35001 ft | 463 kts | 171° |
| 2026-05-04 01:03 | 18.06073 | -77.85684 | 35004 ft | 463 kts | 171° |
| 2026-05-04 01:04 | 17.99767 | -77.84266 | 34991 ft | 463 kts | 171° |
| 2026-05-04 01:04 | 17.93504 | -77.82861 | 34986 ft | 463 kts | 171° |
| 2026-05-04 01:05 | 17.87200 | -77.81440 | 34994 ft | 464 kts | 171° |
| 2026-05-04 01:05 | 17.80895 | -77.80026 | 34987 ft | 463 kts | 171° |
| 2026-05-04 01:06 | 17.74589 | -77.78610 | 34991 ft | 464 kts | 171° |
| 2026-05-04 01:06 | 17.68284 | -77.77194 | 34994 ft | 463 kts | 171° |
| 2026-05-04 01:07 | 17.61977 | -77.75786 | 35001 ft | 463 kts | 171° |
| 2026-05-04 01:07 | 17.55671 | -77.74376 | 35009 ft | 463 kts | 171° |
| 2026-05-04 01:08 | 17.49371 | -77.72965 | 35013 ft | 463 kts | 171° |
| 2026-05-04 01:08 | 17.43067 | -77.71548 | 35017 ft | 463 kts | 171° |
| 2026-05-04 01:09 | 17.36761 | -77.70141 | 35022 ft | 463 kts | 171° |
| 2026-05-04 01:09 | 17.30455 | -77.68738 | 35022 ft | 463 kts | 171° |
| 2026-05-04 01:10 | 17.24194 | -77.67339 | 35023 ft | 463 kts | 171° |
| 2026-05-04 01:10 | 17.17886 | -77.65927 | 35024 ft | 463 kts | 171° |
| 2026-05-04 01:11 | 17.11582 | -77.64521 | 35026 ft | 463 kts | 171° |
| 2026-05-04 01:11 | 17.05268 | -77.63114 | 35029 ft | 463 kts | 171° |
| 2026-05-04 01:12 | 16.98962 | -77.61706 | 35032 ft | 463 kts | 171° |
| 2026-05-04 01:12 | 16.92657 | -77.60303 | 35033 ft | 463 kts | 171° |
| 2026-05-04 01:13 | 16.86354 | -77.58904 | 35035 ft | 462 kts | 171° |
| 2026-05-04 01:13 | 16.80061 | -77.57508 | 35032 ft | 462 kts | 171° |
| 2026-05-04 01:14 | 16.73806 | -77.56124 | 35030 ft | 462 kts | 171° |
| 2026-05-04 01:14 | 16.67511 | -77.54729 | 35030 ft | 462 kts | 171° |
| 2026-05-04 01:15 | 16.61216 | -77.53330 | 35030 ft | 462 kts | 171° |
| 2026-05-04 01:15 | 16.54926 | -77.51931 | 35030 ft | 462 kts | 171° |
| 2026-05-04 01:16 | 16.48632 | -77.50538 | 35031 ft | 462 kts | 171° |
| 2026-05-04 01:16 | 16.42338 | -77.49147 | 35031 ft | 462 kts | 171° |
| 2026-05-04 01:17 | 16.36051 | -77.47763 | 35026 ft | 462 kts | 171° |
| 2026-05-04 01:17 | 16.29763 | -77.46365 | 35023 ft | 462 kts | 171° |
| 2026-05-04 01:18 | 16.23479 | -77.44977 | 35025 ft | 462 kts | 171° |
| 2026-05-04 01:18 | 16.17226 | -77.43598 | 35022 ft | 462 kts | 171° |
| 2026-05-04 01:19 | 16.10932 | -77.42219 | 35021 ft | 462 kts | 171° |
| 2026-05-04 01:19 | 16.04652 | -77.40834 | 35022 ft | 461 kts | 171° |
| 2026-05-04 01:20 | 15.98370 | -77.39451 | 35019 ft | 462 kts | 171° |
| 2026-05-04 01:20 | 15.92078 | -77.38122 | 35021 ft | 461 kts | 172° |
| 2026-05-04 01:21 | 15.85773 | -77.36891 | 35021 ft | 461 kts | 172° |
| 2026-05-04 01:21 | 15.79473 | -77.35666 | 35019 ft | 461 kts | 172° |
| 2026-05-04 01:22 | 15.73169 | -77.34412 | 35017 ft | 461 kts | 172° |
| 2026-05-04 01:22 | 15.66872 | -77.33150 | 35024 ft | 461 kts | 172° |
| 2026-05-04 01:23 | 15.61635 | -77.32106 | 35017 ft | 461 kts | 172° |
| 2026-05-04 01:23 | 15.55332 | -77.30855 | 35015 ft | 461 kts | 172° |
| 2026-05-04 01:24 | 15.48012 | -77.29403 | 35013 ft | 461 kts | 172° |
| 2026-05-04 01:24 | 15.41713 | -77.28149 | 35011 ft | 461 kts | 172° |
| 2026-05-04 01:25 | 15.37765 | -77.27364 | 35014 ft | 461 kts | 172° |
| 2026-05-04 01:25 | 15.31460 | -77.26114 | 35014 ft | 461 kts | 172° |
| 2026-05-04 01:26 | 15.25158 | -77.24867 | 35014 ft | 461 kts | 172° |
| 2026-05-04 01:26 | 15.18855 | -77.23614 | 35009 ft | 461 kts | 172° |
| 2026-05-04 01:27 | 15.12592 | -77.22373 | 35009 ft | 461 kts | 172° |
| 2026-05-04 01:27 | 15.06285 | -77.21127 | 35015 ft | 462 kts | 172° |
| 2026-05-04 01:28 | 14.99974 | -77.19884 | 35015 ft | 462 kts | 171° |
| 2026-05-04 01:28 | 14.93662 | -77.18619 | 35012 ft | 462 kts | 171° |
| 2026-05-04 01:29 | 14.87356 | -77.17343 | 35008 ft | 461 kts | 171° |
| 2026-05-04 01:29 | 14.81056 | -77.16068 | 35006 ft | 462 kts | 171° |
| 2026-05-04 01:30 | 14.74748 | -77.14800 | 35002 ft | 462 kts | 171° |
| 2026-05-04 01:30 | 14.68437 | -77.13535 | 35002 ft | 462 kts | 171° |
| 2026-05-04 01:31 | 14.62134 | -77.12268 | 35001 ft | 462 kts | 171° |
| 2026-05-04 01:31 | 14.56661 | -77.11170 | 35005 ft | 462 kts | 171° |
| 2026-05-04 01:32 | 14.50424 | -77.09916 | 35009 ft | 462 kts | 171° |
| 2026-05-04 01:32 | 14.44115 | -77.08649 | 35005 ft | 462 kts | 171° |
| 2026-05-04 01:33 | 14.40507 | -77.07923 | 35000 ft | 462 kts | 171° |
| 2026-05-04 01:33 | 14.34197 | -77.06658 | 35013 ft | 462 kts | 171° |
| 2026-05-04 01:34 | 14.27887 | -77.05387 | 35012 ft | 462 kts | 171° |
| 2026-05-04 01:34 | 14.21585 | -77.04121 | 34998 ft | 462 kts | 171° |
| 2026-05-04 01:35 | 14.15321 | -77.02872 | 35000 ft | 461 kts | 171° |
| 2026-05-04 01:35 | 14.09020 | -77.01619 | 34996 ft | 461 kts | 171° |
| 2026-05-04 01:36 | 14.02717 | -77.00358 | 34992 ft | 461 kts | 171° |
| 2026-05-04 01:36 | 13.96413 | -76.99089 | 34989 ft | 461 kts | 171° |
| 2026-05-04 01:37 | 13.90112 | -76.97830 | 35003 ft | 461 kts | 171° |
| 2026-05-04 01:37 | 13.83807 | -76.96574 | 34994 ft | 461 kts | 171° |
| 2026-05-04 01:38 | 13.77515 | -76.95314 | 34996 ft | 461 kts | 171° |
| 2026-05-04 01:38 | 13.71226 | -76.94059 | 34987 ft | 460 kts | 171° |
| 2026-05-04 01:39 | 13.64935 | -76.92802 | 34982 ft | 460 kts | 171° |
| 2026-05-04 01:39 | 13.58644 | -76.91555 | 34979 ft | 461 kts | 171° |
| 2026-05-04 01:40 | 13.52352 | -76.90303 | 34982 ft | 460 kts | 171° |
| 2026-05-04 01:40 | 13.46067 | -76.89044 | 34983 ft | 460 kts | 170° |
| 2026-05-04 01:41 | 13.39814 | -76.87797 | 34984 ft | 461 kts | 171° |
| 2026-05-04 01:41 | 13.33507 | -76.86554 | 34981 ft | 460 kts | 171° |
| 2026-05-04 01:42 | 13.27223 | -76.85302 | 34977 ft | 460 kts | 170° |
| 2026-05-04 01:42 | 13.24905 | -76.84838 | 34975 ft | 460 kts | 170° |
| 2026-05-04 01:43 | 13.18613 | -76.83586 | 34969 ft | 460 kts | 170° |
| 2026-05-04 01:43 | 13.12324 | -76.82345 | 34967 ft | 460 kts | 170° |
| 2026-05-04 01:44 | 13.06035 | -76.81100 | 34965 ft | 460 kts | 170° |
| 2026-05-04 01:44 | 12.99744 | -76.79852 | 34963 ft | 460 kts | 170° |
| 2026-05-04 01:45 | 12.93494 | -76.78612 | 34961 ft | 460 kts | 170° |
| 2026-05-04 01:45 | 12.84057 | -76.76741 | 34961 ft | 461 kts | 170° |
| 2026-05-04 01:46 | 12.77766 | -76.75498 | 34957 ft | 461 kts | 170° |
| 2026-05-04 01:46 | 12.71463 | -76.74258 | 34956 ft | 461 kts | 170° |
| 2026-05-04 01:47 | 12.65163 | -76.73014 | 34956 ft | 461 kts | 170° |
| 2026-05-04 01:47 | 12.58859 | -76.71771 | 34957 ft | 461 kts | 170° |
| 2026-05-04 01:48 | 12.52559 | -76.70530 | 34954 ft | 461 kts | 170° |
| 2026-05-04 01:48 | 12.46296 | -76.69307 | 34954 ft | 461 kts | 170° |
| 2026-05-04 01:49 | 12.39998 | -76.68075 | 34947 ft | 461 kts | 170° |
| 2026-05-04 01:49 | 12.33703 | -76.66829 | 34950 ft | 461 kts | 170° |
| 2026-05-04 01:50 | 12.27395 | -76.65589 | 34947 ft | 461 kts | 170° |
| 2026-05-04 01:50 | 12.21094 | -76.64356 | 34946 ft | 461 kts | 170° |
| 2026-05-04 01:51 | 12.14800 | -76.63125 | 34946 ft | 461 kts | 170° |
| 2026-05-04 01:51 | 12.12712 | -76.62716 | 34949 ft | 461 kts | 170° |
| 2026-05-04 01:52 | 12.09208 | -76.62116 | 34996 ft | 449 kts | 172° |
| 2026-05-04 01:53 | 12.06116 | -76.61580 | 34623 ft | 450 kts | 170° |
| 2026-05-04 01:53 | 12.03047 | -76.60963 | 34891 ft | 451 kts | 169° |
| 2026-05-04 01:53 | 11.96835 | -76.59631 | 34929 ft | 459 kts | 168° |
| 2026-05-04 01:54 | 11.90563 | -76.58337 | 34925 ft | 460 kts | 169° |
| 2026-05-04 01:54 | 11.84271 | -76.57132 | 34925 ft | 460 kts | 170° |
| 2026-05-04 01:55 | 11.78017 | -76.55936 | 34926 ft | 460 kts | 169° |
| 2026-05-04 01:55 | 11.71727 | -76.54721 | 34925 ft | 460 kts | 169° |
| 2026-05-04 01:56 | 11.65433 | -76.53481 | 34928 ft | 461 kts | 169° |
| 2026-05-04 01:56 | 11.59143 | -76.52246 | 34930 ft | 461 kts | 169° |
| 2026-05-04 01:57 | 11.52844 | -76.51020 | 34933 ft | 461 kts | 169° |
| 2026-05-04 01:57 | 11.46538 | -76.49792 | 34935 ft | 461 kts | 169° |
| 2026-05-04 01:58 | 11.40236 | -76.48561 | 34936 ft | 460 kts | 169° |
| 2026-05-04 01:58 | 11.33945 | -76.47336 | 34942 ft | 460 kts | 169° |
| 2026-05-04 01:59 | 11.27647 | -76.46113 | 34938 ft | 460 kts | 169° |
| 2026-05-04 01:59 | 11.21355 | -76.44892 | 34942 ft | 460 kts | 169° |
| 2026-05-04 02:00 | 11.15109 | -76.43679 | 34934 ft | 460 kts | 169° |
| 2026-05-04 02:00 | 11.08818 | -76.42456 | 34934 ft | 460 kts | 169° |
| 2026-05-04 02:01 | 11.02528 | -76.41231 | 34936 ft | 460 kts | 169° |
| 2026-05-04 02:01 | 10.96243 | -76.40010 | 34939 ft | 460 kts | 169° |
| 2026-05-04 02:02 | 10.89946 | -76.38791 | 34936 ft | 460 kts | 169° |
| 2026-05-04 02:02 | 10.83656 | -76.37574 | 34935 ft | 460 kts | 169° |
| 2026-05-04 02:03 | 10.77369 | -76.36354 | 34934 ft | 460 kts | 169° |
| 2026-05-04 02:03 | 10.71088 | -76.35131 | 34942 ft | 460 kts | 169° |
| 2026-05-04 02:04 | 10.64802 | -76.33911 | 34938 ft | 459 kts | 169° |
| 2026-05-04 02:04 | 10.58520 | -76.32693 | 34934 ft | 459 kts | 169° |
| 2026-05-04 02:05 | 10.52251 | -76.31479 | 34932 ft | 459 kts | 169° |
| 2026-05-04 02:05 | 10.45969 | -76.30268 | 34933 ft | 459 kts | 169° |
| 2026-05-04 02:06 | 10.39688 | -76.29056 | 34936 ft | 460 kts | 169° |
| 2026-05-04 02:06 | 10.33405 | -76.27837 | 34933 ft | 460 kts | 169° |
| 2026-05-04 02:07 | 10.27126 | -76.26622 | 34930 ft | 460 kts | 169° |
| 2026-05-04 02:07 | 10.20837 | -76.25409 | 34929 ft | 460 kts | 169° |
| 2026-05-04 02:08 | 10.14551 | -76.24204 | 34930 ft | 459 kts | 168° |
| 2026-05-04 02:08 | 10.08271 | -76.22986 | 34930 ft | 460 kts | 168° |
| 2026-05-04 02:09 | 10.01986 | -76.21769 | 34929 ft | 459 kts | 168° |
| 2026-05-04 02:09 | 9.95704 | -76.20556 | 34928 ft | 459 kts | 169° |
| 2026-05-04 02:10 | 9.89427 | -76.19349 | 34925 ft | 459 kts | 168° |
| 2026-05-04 02:10 | 9.83197 | -76.18146 | 34922 ft | 459 kts | 168° |
| 2026-05-04 02:11 | 9.76923 | -76.16936 | 34923 ft | 459 kts | 169° |
| 2026-05-04 02:11 | 9.70644 | -76.15728 | 34924 ft | 459 kts | 168° |
| 2026-05-04 02:12 | 9.64361 | -76.14516 | 34927 ft | 459 kts | 168° |
| 2026-05-04 02:12 | 9.59098 | -76.13504 | 34929 ft | 459 kts | 169° |
| 2026-05-04 02:13 | 9.52822 | -76.12285 | 34932 ft | 459 kts | 168° |
| 2026-05-04 02:13 | 9.46553 | -76.11025 | 34936 ft | 459 kts | 168° |
| 2026-05-04 02:14 | 9.40282 | -76.09761 | 34937 ft | 459 kts | 168° |
| 2026-05-04 02:14 | 9.34003 | -76.08508 | 34935 ft | 459 kts | 168° |
| 2026-05-04 02:15 | 9.27731 | -76.07264 | 34932 ft | 459 kts | 168° |
| 2026-05-04 02:15 | 9.21453 | -76.06016 | 34929 ft | 459 kts | 168° |
| 2026-05-04 02:16 | 9.15176 | -76.04762 | 34927 ft | 459 kts | 168° |
| 2026-05-04 02:16 | 9.08948 | -76.03520 | 34926 ft | 459 kts | 168° |
| 2026-05-04 02:17 | 9.02679 | -76.02265 | 34925 ft | 459 kts | 168° |
| 2026-05-04 02:17 | 8.96404 | -76.01017 | 34923 ft | 459 kts | 168° |
| 2026-05-04 02:18 | 8.90127 | -75.99771 | 34922 ft | 460 kts | 168° |
| 2026-05-04 02:18 | 8.83851 | -75.98520 | 34921 ft | 459 kts | 168° |
| 2026-05-04 02:19 | 8.77572 | -75.97273 | 34922 ft | 460 kts | 168° |
| 2026-05-04 02:19 | 8.71293 | -75.96031 | 34928 ft | 460 kts | 168° |
| 2026-05-04 02:20 | 8.65008 | -75.94783 | 34930 ft | 460 kts | 168° |
| 2026-05-04 02:20 | 8.58723 | -75.93533 | 34930 ft | 460 kts | 168° |
| 2026-05-04 02:21 | 8.52433 | -75.92283 | 34930 ft | 460 kts | 168° |
| 2026-05-04 02:21 | 8.46146 | -75.91033 | 34932 ft | 460 kts | 168° |
| 2026-05-04 02:22 | 8.39859 | -75.89783 | 34934 ft | 460 kts | 168° |
| 2026-05-04 02:22 | 8.33569 | -75.88534 | 34937 ft | 461 kts | 168° |
| 2026-05-04 02:23 | 8.27275 | -75.87287 | 34939 ft | 461 kts | 168° |
| 2026-05-04 02:23 | 8.21018 | -75.86050 | 34943 ft | 461 kts | 168° |
| 2026-05-04 02:24 | 8.14728 | -75.84809 | 34944 ft | 461 kts | 168° |
| 2026-05-04 02:24 | 8.08430 | -75.83560 | 34950 ft | 461 kts | 168° |
| 2026-05-04 02:25 | 8.02132 | -75.82315 | 34957 ft | 461 kts | 168° |
| 2026-05-04 02:25 | 7.95836 | -75.81068 | 34959 ft | 461 kts | 168° |
| 2026-05-04 02:26 | 7.89550 | -75.79810 | 34963 ft | 461 kts | 168° |
| 2026-05-04 02:26 | 7.83260 | -75.78547 | 34966 ft | 461 kts | 168° |
| 2026-05-04 02:27 | 7.76959 | -75.77295 | 34970 ft | 461 kts | 168° |
| 2026-05-04 02:27 | 7.70662 | -75.76050 | 34978 ft | 461 kts | 168° |
| 2026-05-04 02:28 | 7.64371 | -75.74798 | 34987 ft | 461 kts | 168° |
| 2026-05-04 02:28 | 7.58364 | -75.73597 | 35001 ft | 460 kts | 168° |
| 2026-05-04 02:29 | 7.52041 | -75.72638 | 34999 ft | 460 kts | 179° |
| 2026-05-04 02:29 | 7.45589 | -75.72594 | 34997 ft | 461 kts | 179° |
| 2026-05-04 02:30 | 7.39213 | -75.72549 | 35005 ft | 461 kts | 179° |
| 2026-05-04 02:30 | 7.32798 | -75.72505 | 35013 ft | 461 kts | 179° |
| 2026-05-04 02:31 | 7.26380 | -75.72465 | 35021 ft | 461 kts | 179° |
| 2026-05-04 02:31 | 7.19961 | -75.72426 | 35027 ft | 462 kts | 179° |
| 2026-05-04 02:32 | 7.13533 | -75.72390 | 35036 ft | 461 kts | 179° |
| 2026-05-04 02:32 | 7.07107 | -75.72350 | 35042 ft | 461 kts | 179° |
| 2026-05-04 02:33 | 7.00686 | -75.72304 | 35049 ft | 462 kts | 179° |
| 2026-05-04 02:33 | 6.94251 | -75.72262 | 35060 ft | 462 kts | 179° |
| 2026-05-04 02:34 | 6.87811 | -75.72231 | 35069 ft | 462 kts | 179° |
| 2026-05-04 02:34 | 6.81380 | -75.72190 | 35076 ft | 462 kts | 179° |
| 2026-05-04 02:35 | 6.74945 | -75.72150 | 35081 ft | 463 kts | 179° |
| 2026-05-04 02:35 | 6.68499 | -75.72111 | 35101 ft | 463 kts | 179° |
| 2026-05-04 02:36 | 6.62050 | -75.72071 | 35109 ft | 463 kts | 179° |
| 2026-05-04 02:36 | 6.55596 | -75.72028 | 35119 ft | 464 kts | 179° |
| 2026-05-04 02:37 | 6.49137 | -75.71992 | 35135 ft | 464 kts | 179° |
| 2026-05-04 02:37 | 6.42720 | -75.71954 | 35152 ft | 465 kts | 179° |
| 2026-05-04 02:38 | 6.36250 | -75.71915 | 35163 ft | 465 kts | 179° |
| 2026-05-04 02:38 | 6.29773 | -75.71871 | 35175 ft | 465 kts | 178° |
| 2026-05-04 02:39 | 6.23305 | -75.71830 | 35179 ft | 465 kts | 179° |
| 2026-05-04 02:39 | 6.16837 | -75.71794 | 35202 ft | 464 kts | 179° |
| 2026-05-04 02:40 | 6.10393 | -75.71750 | 35213 ft | 463 kts | 178° |
| 2026-05-04 02:40 | 6.03952 | -75.71715 | 35208 ft | 462 kts | 178° |
| 2026-05-04 02:41 | 5.97527 | -75.71677 | 34776 ft | 462 kts | 178° |
| 2026-05-04 02:41 | 5.94304 | -75.71656 | 33958 ft | 465 kts | 178° |
| 2026-05-04 02:41 | 5.91032 | -75.71631 | 32919 ft | 474 kts | 178° |
| 2026-05-04 02:42 | 5.87724 | -75.71602 | 32178 ft | 475 kts | 178° |
| 2026-05-04 02:42 | 5.84426 | -75.71574 | 31602 ft | 472 kts | 178° |
| 2026-05-04 02:42 | 5.81151 | -75.71549 | 31061 ft | 468 kts | 179° |
| 2026-05-04 02:42 | 5.77915 | -75.71526 | 30535 ft | 463 kts | 179° |
| 2026-05-04 02:43 | 5.74708 | -75.71505 | 30002 ft | 458 kts | 179° |
| 2026-05-04 02:43 | 5.71537 | -75.71485 | 29474 ft | 454 kts | 179° |
| 2026-05-04 02:43 | 5.68392 | -75.71466 | 28931 ft | 450 kts | 178° |
| 2026-05-04 02:43 | 5.65279 | -75.71443 | 28387 ft | 446 kts | 178° |
| 2026-05-04 02:44 | 5.62186 | -75.71417 | 27845 ft | 442 kts | 178° |
| 2026-05-04 02:44 | 5.59164 | -75.71392 | 27312 ft | 438 kts | 178° |
| 2026-05-04 02:44 | 5.56131 | -75.71371 | 26767 ft | 434 kts | 178° |
| 2026-05-04 02:44 | 5.53125 | -75.71350 | 26230 ft | 430 kts | 178° |
| 2026-05-04 02:45 | 5.50144 | -75.71328 | 25677 ft | 427 kts | 178° |
| 2026-05-04 02:45 | 5.47188 | -75.71304 | 25137 ft | 423 kts | 178° |
| 2026-05-04 02:45 | 5.44258 | -75.71279 | 24620 ft | 419 kts | 178° |
| 2026-05-04 02:45 | 5.41355 | -75.71256 | 24107 ft | 415 kts | 178° |
| 2026-05-04 02:46 | 5.38452 | -75.71236 | 23605 ft | 412 kts | 178° |
| 2026-05-04 02:46 | 5.35632 | -75.71218 | 23115 ft | 409 kts | 178° |
| 2026-05-04 02:46 | 5.32788 | -75.71200 | 22641 ft | 406 kts | 178° |
| 2026-05-04 02:46 | 5.29978 | -75.71181 | 22174 ft | 402 kts | 177° |
| 2026-05-04 02:47 | 5.27190 | -75.71158 | 21690 ft | 399 kts | 177° |
| 2026-05-04 02:47 | 5.24420 | -75.71135 | 21202 ft | 396 kts | 177° |
| 2026-05-04 02:47 | 5.21676 | -75.71115 | 20716 ft | 393 kts | 177° |
| 2026-05-04 02:47 | 5.18951 | -75.71095 | 20226 ft | 390 kts | 177° |
| 2026-05-04 02:48 | 5.16268 | -75.71075 | 19432 ft | 383 kts | 177° |
| 2026-05-04 02:48 | 5.13619 | -75.71105 | 18521 ft | 379 kts | 182° |
| 2026-05-04 02:48 | 5.11007 | -75.71350 | 17605 ft | 375 kts | 182° |
| 2026-05-04 02:48 | 5.08430 | -75.71591 | 16707 ft | 369 kts | 182° |
| 2026-05-04 02:49 | 5.05885 | -75.71826 | 15805 ft | 365 kts | 183° |
| 2026-05-04 02:49 | 5.03372 | -75.72057 | 14895 ft | 360 kts | 183° |
| 2026-05-04 02:49 | 5.00890 | -75.72284 | 14105 ft | 354 kts | 183° |
| 2026-05-04 02:49 | 4.98493 | -75.72505 | 13652 ft | 339 kts | 184° |
| 2026-05-04 02:50 | 4.96185 | -75.72720 | 13220 ft | 327 kts | 184° |
| 2026-05-04 02:50 | 4.93924 | -75.72930 | 12788 ft | 327 kts | 184° |
| 2026-05-04 02:50 | 4.91659 | -75.73141 | 12354 ft | 327 kts | 184° |
| 2026-05-04 02:50 | 4.89397 | -75.73352 | 11927 ft | 326 kts | 184° |
| 2026-05-04 02:51 | 4.87138 | -75.73562 | 11493 ft | 326 kts | 184° |
| 2026-05-04 02:51 | 4.84884 | -75.73769 | 11072 ft | 325 kts | 184° |
| 2026-05-04 02:51 | 4.82638 | -75.73975 | 10639 ft | 323 kts | 184° |
| 2026-05-04 02:51 | 4.80399 | -75.73929 | 10248 ft | 321 kts | 171° |
| 2026-05-04 02:52 | 4.78253 | -75.73456 | 10147 ft | 310 kts | 166° |
| 2026-05-04 02:52 | 4.76186 | -75.72976 | 10022 ft | 300 kts | 167° |
| 2026-05-04 02:52 | 4.74132 | -75.72506 | 9438 ft | 306 kts | 167° |
| 2026-05-04 02:52 | 4.72076 | -75.72041 | 8882 ft | 299 kts | 167° |
| 2026-05-04 02:53 | 4.70070 | -75.71587 | 8369 ft | 292 kts | 168° |
| 2026-05-04 02:53 | 4.68083 | -75.71329 | 7861 ft | 284 kts | 182° |
| 2026-05-04 02:53 | 4.66155 | -75.71619 | 7405 ft | 276 kts | 194° |
| 2026-05-04 02:53 | 4.64364 | -75.72092 | 7328 ft | 256 kts | 194° |
| 2026-05-04 02:54 | 4.62689 | -75.72507 | 7226 ft | 242 kts | 194° |
| 2026-05-04 02:54 | 4.61621 | -75.72758 | 7041 ft | 235 kts | 193° |
| 2026-05-04 02:54 | 4.60058 | -75.73125 | 6749 ft | 227 kts | 194° |
| 2026-05-04 02:54 | 4.58550 | -75.73480 | 6447 ft | 218 kts | 194° |
| 2026-05-04 02:55 | 4.55802 | -75.74127 | 5930 ft | 185 kts | 194° |
| 2026-05-04 02:55 | 4.54630 | -75.74403 | 5675 ft | 164 kts | 192° |
| 2026-05-04 02:55 | 4.53544 | -75.74660 | 5468 ft | 158 kts | 193° |
| 2026-05-04 02:56 | 4.52481 | -75.74910 | 5261 ft | 157 kts | 193° |
| 2026-05-04 02:56 | 4.51417 | -75.75160 | 5057 ft | 156 kts | 192° |
| 2026-05-04 02:56 | 4.50361 | -75.75409 | 4849 ft | 156 kts | 193° |
| 2026-05-04 02:56 | 4.49304 | -75.75658 | 4642 ft | 156 kts | 193° |
| 2026-05-04 02:57 | 4.48251 | -75.75905 | 4437 ft | 155 kts | 193° |
| 2026-05-04 02:57 | 4.47203 | -75.76146 | 4249 ft | 154 kts | 193° |
| 2026-05-04 02:57 | 4.46156 | -75.76396 | 4027 ft | 154 kts | 193° |
| 2026-05-04 02:57 | 4.45173 | -75.76631 | 3978 ft | 140 kts | 193° |
| 2026-05-04 02:58 | 4.44161 | -75.76875 | 4452 ft | 157 kts | 193° |
| 2026-05-04 02:58 | 4.43084 | -75.77133 | 5182 ft | 159 kts | 193° |
| 2026-05-04 02:58 | 4.42011 | -75.77388 | 5638 ft | 160 kts | 195° |
| 2026-05-04 02:58 | 4.41024 | -75.77976 | 5755 ft | 176 kts | 239° |
| 2026-05-04 02:59 | 4.40832 | -75.79206 | 5897 ft | 194 kts | 284° |
| 2026-05-04 02:59 | 4.41392 | -75.80507 | 6070 ft | 213 kts | 298° |
| 2026-05-04 02:59 | 4.42184 | -75.81834 | 6350 ft | 230 kts | 300° |
| 2026-05-04 02:59 | 4.43049 | -75.83206 | 6983 ft | 235 kts | 300° |
| 2026-05-04 03:00 | 4.43910 | -75.84591 | 7642 ft | 240 kts | 300° |
| 2026-05-04 03:00 | 4.44822 | -75.86101 | 7943 ft | 260 kts | 299° |
| 2026-05-04 03:00 | 4.45697 | -75.87683 | 8000 ft | 266 kts | 289° |
| 2026-05-04 03:00 | 4.46006 | -75.89482 | 7996 ft | 263 kts | 269° |
| 2026-05-04 03:01 | 4.46010 | -75.91318 | 7997 ft | 264 kts | 268° |
| 2026-05-04 03:01 | 4.46007 | -75.93165 | 7997 ft | 266 kts | 268° |
| 2026-05-04 03:01 | 4.46005 | -75.95008 | 7992 ft | 263 kts | 268° |
| 2026-05-04 03:01 | 4.45977 | -75.96848 | 7997 ft | 265 kts | 267° |
| 2026-05-04 03:02 | 4.45924 | -75.98687 | 8000 ft | 264 kts | 266° |
| 2026-05-04 03:02 | 4.45866 | -76.00526 | 7993 ft | 263 kts | 267° |
| 2026-05-04 03:02 | 4.45810 | -76.02363 | 7997 ft | 263 kts | 266° |
| 2026-05-04 03:02 | 4.45648 | -76.04183 | 7991 ft | 262 kts | 252° |
| 2026-05-04 03:03 | 4.44808 | -76.05769 | 7968 ft | 259 kts | 226° |
| 2026-05-04 03:03 | 4.43339 | -76.06778 | 7968 ft | 258 kts | 199° |
| 2026-05-04 03:03 | 4.41570 | -76.07004 | 7965 ft | 259 kts | 173° |
| 2026-05-04 03:03 | 4.39866 | -76.06432 | 7977 ft | 261 kts | 149° |
| 2026-05-04 03:04 | 4.38544 | -76.05187 | 7988 ft | 264 kts | 125° |
| 2026-05-04 03:04 | 4.37823 | -76.03491 | 7989 ft | 267 kts | 101° |
| 2026-05-04 03:04 | 4.37910 | -76.01628 | 7996 ft | 272 kts | 74° |
| 2026-05-04 03:04 | 4.38831 | -75.99991 | 7997 ft | 273 kts | 45° |
| 2026-05-04 03:05 | 4.40435 | -75.98987 | 7997 ft | 274 kts | 20° |
| 2026-05-04 03:05 | 4.42231 | -75.98333 | 7996 ft | 276 kts | 19° |
| 2026-05-04 03:05 | 4.43932 | -75.97465 | 7994 ft | 275 kts | 40° |
| 2026-05-04 03:05 | 4.45181 | -75.96038 | 7996 ft | 272 kts | 56° |
| 2026-05-04 03:06 | 4.46328 | -75.94520 | 7994 ft | 273 kts | 48° |
| 2026-05-04 03:06 | 4.47629 | -75.93128 | 7994 ft | 273 kts | 47° |
| 2026-05-04 03:06 | 4.48929 | -75.91736 | 7989 ft | 273 kts | 48° |
| 2026-05-04 03:06 | 4.50225 | -75.90341 | 7989 ft | 274 kts | 47° |
| 2026-05-04 03:07 | 4.51536 | -75.88956 | 7993 ft | 275 kts | 43° |
| 2026-05-04 03:07 | 4.53128 | -75.87919 | 7991 ft | 273 kts | 26° |
| 2026-05-04 03:07 | 4.54820 | -75.87062 | 7997 ft | 274 kts | 26° |
| 2026-05-04 03:07 | 4.56529 | -75.86201 | 8008 ft | 273 kts | 27° |
| 2026-05-04 03:08 | 4.58183 | -75.85368 | 8017 ft | 260 kts | 26° |
| 2026-05-04 03:08 | 4.59754 | -75.84578 | 8021 ft | 246 kts | 26° |
| 2026-05-04 03:08 | 4.61269 | -75.83817 | 8024 ft | 242 kts | 27° |
| 2026-05-04 03:08 | 4.62646 | -75.82878 | 7967 ft | 240 kts | 47° |
| 2026-05-04 03:09 | 4.63587 | -75.81518 | 7856 ft | 237 kts | 69° |
| 2026-05-04 03:09 | 4.63977 | -75.79932 | 7743 ft | 234 kts | 90° |
| 2026-05-04 03:09 | 4.63804 | -75.78325 | 7632 ft | 232 kts | 107° |
| 2026-05-04 03:09 | 4.63412 | -75.76749 | 7527 ft | 234 kts | 106° |
| 2026-05-04 03:10 | 4.63037 | -75.75200 | 7403 ft | 225 kts | 105° |
| 2026-05-04 03:10 | 4.62551 | -75.73776 | 7307 ft | 206 kts | 128° |
| 2026-05-04 03:10 | 4.61504 | -75.72984 | 7176 ft | 184 kts | 167° |
| 2026-05-04 03:10 | 4.60247 | -75.73021 | 6900 ft | 184 kts | 196° |
| 2026-05-04 03:11 | 4.58999 | -75.73344 | 6610 ft | 186 kts | 195° |
| 2026-05-04 03:11 | 4.57746 | -75.73644 | 6330 ft | 184 kts | 194° |
| 2026-05-04 03:11 | 4.56501 | -75.73937 | 6081 ft | 183 kts | 194° |
| 2026-05-04 03:11 | 4.55265 | -75.74240 | 5821 ft | 181 kts | 194° |
| 2026-05-04 03:12 | 4.54069 | -75.74530 | 5587 ft | 170 kts | 192° |
| 2026-05-04 03:12 | 4.52947 | -75.74797 | 5366 ft | 160 kts | 192° |
| 2026-05-04 03:12 | 4.51876 | -75.75051 | 5150 ft | 157 kts | 192° |
| 2026-05-04 03:12 | 4.50818 | -75.75300 | 4941 ft | 156 kts | 192° |
| 2026-05-04 03:13 | 4.49766 | -75.75549 | 4734 ft | 155 kts | 193° |
| 2026-05-04 03:13 | 4.48717 | -75.75795 | 4526 ft | 155 kts | 193° |
| 2026-05-04 03:13 | 4.47667 | -75.76042 | 4322 ft | 154 kts | 193° |
| 2026-05-04 03:13 | 4.46625 | -75.76284 | 4115 ft | 154 kts | 192° |
| 2026-05-04 03:14 | 4.45603 | -75.76528 | 3973 ft | 140 kts | 193° |
| 2026-05-04 03:14 | 4.44895 | -75.76699 | 3961 ft | 62 kts | 193° |
| 2026-05-04 03:14 | 4.44637 | -75.76762 | 3964 ft | 33 kts | 193° |
| 2026-05-04 03:14 | 4.44415 | -75.76817 | 3964 ft | 32 kts | 194° |
| 2026-05-04 03:15 | 4.44198 | -75.76869 | 3961 ft | 30 kts | 193° |
| 2026-05-04 03:15 | 4.44040 | -75.76904 | 3959 ft | 21 kts | 182° |
| 2026-05-04 03:15 | 4.43992 | -75.76912 | 3959 ft | 3 kts | 290° |
| 2026-05-04 03:15 | 4.44028 | -75.76912 | 3960 ft | 11 kts | 14° |
| 2026-05-04 03:16 | 4.44157 | -75.76880 | 3960 ft | 25 kts | 14° |
| 2026-05-04 03:16 | 4.44325 | -75.76838 | 3964 ft | 24 kts | 13° |
| 2026-05-04 03:16 | 4.44490 | -75.76798 | 3963 ft | 25 kts | 14° |
| 2026-05-04 03:16 | 4.44656 | -75.76758 | 3964 ft | 25 kts | 13° |
| 2026-05-04 03:17 | 4.44830 | -75.76716 | 3959 ft | 26 kts | 13° |
| 2026-05-04 03:17 | 4.45004 | -75.76674 | 3963 ft | 26 kts | 13° |
| 2026-05-04 03:17 | 4.45166 | -75.76637 | 3967 ft | 22 kts | 4° |
| 2026-05-04 03:17 | 4.45242 | -75.76699 | 3965 ft | 9 kts | 327° |
| 2026-05-04 03:18 | 4.45306 | -75.76693 | 3967 ft | 10 kts | 15° |
| 2026-05-04 03:18 | 4.45371 | -75.76677 | 3966 ft | 7 kts | 12° |
| 2026-05-04 03:18 | 4.45392 | -75.76707 | 3968 ft | 6 kts | 282° |
| 2026-05-04 03:18 | 4.45396 | -75.76727 | 3968 ft | 1 kts | 282° |